Time;durP1;ratioP1;P1;durP2;ratioP2;P2;SDS_P1;SDS_P2;PMS_P1;PMS_P2;Temp;Humidity;BMP_temperature;BMP_pressure;BME280_temperature;BME280_humidity;BME280_pressure;Samples;Min_cycle;Max_cycle;Signal;HPM_P1;HPM_P2
2021/12/09 00:01:32;;;;;;;12.90;11.13;;;2.20;99.90;;;;;;4998735;28;20270;-77
2021/12/09 00:04:02;;;;;;;13.77;10.87;;;2.20;99.90;;;;;;5016119;28;20186;-76
2021/12/09 00:06:30;;;;;;;13.83;11.10;;;2.20;99.90;;;;;;4998561;28;20309;-76
2021/12/09 00:09:02;;;;;;;13.17;11.07;;;2.20;99.90;;;;;;5015649;28;20178;-75
2021/12/09 00:11:29;;;;;;;14.63;11.63;;;2.20;99.90;;;;;;5015699;28;20176;-75
2021/12/09 00:13:56;;;;;;;14.37;11.23;;;2.10;99.90;;;;;;4997454;28;20677;-75
2021/12/09 00:16:22;;;;;;;16.30;11.63;;;2.20;99.90;;;;;;5015482;28;20197;-77
2021/12/09 00:18:48;;;;;;;17.53;13.13;;;2.10;99.90;;;;;;5016056;28;20608;-77
2021/12/09 00:21:14;;;;;;;18.23;12.93;;;2.10;99.90;;;;;;4997564;28;20693;-76
2021/12/09 00:23:40;;;;;;;19.03;13.70;;;2.10;99.90;;;;;;5015426;28;20257;-76
2021/12/09 00:26:06;;;;;;;16.37;12.60;;;2.10;99.90;;;;;;5015584;28;20203;-76
2021/12/09 00:28:32;;;;;;;15.27;11.57;;;2.20;99.90;;;;;;4997665;28;20183;-76
2021/12/09 00:30:58;;;;;;;16.60;12.13;;;2.10;99.90;;;;;;4997511;28;20179;-76
2021/12/09 00:33:24;;;;;;;14.60;11.57;;;2.00;99.90;;;;;;5014951;28;20209;-76
2021/12/09 00:35:56;;;;;;;15.67;11.93;;;2.30;99.90;;;;;;5015005;28;20616;-76
2021/12/09 00:38:34;;;;;;;13.07;10.27;;;2.00;99.90;;;;;;5015113;28;20233;-76
2021/12/09 00:41:02;;;;;;;15.33;11.47;;;2.00;99.90;;;;;;4997350;28;20201;-75
2021/12/09 00:43:28;;;;;;;15.67;11.13;;;2.00;99.90;;;;;;5014699;28;20583;-76
2021/12/09 00:45:54;;;;;;;15.87;11.70;;;2.00;99.90;;;;;;5015185;28;20182;-76
2021/12/09 00:48:20;;;;;;;15.37;11.17;;;2.00;99.90;;;;;;5013145;28;20179;-76
2021/12/09 00:50:46;;;;;;;18.00;12.07;;;2.00;99.90;;;;;;5007877;28;20646;-76
2021/12/09 00:53:12;;;;;;;18.17;12.57;;;2.00;99.90;;;;;;4997802;28;20203;-76
2021/12/09 00:55:38;;;;;;;15.37;10.87;;;2.00;99.90;;;;;;5014775;28;20580;-76
2021/12/09 00:58:04;;;;;;;13.97;11.53;;;2.00;99.90;;;;;;5014411;28;20175;-76
2021/12/09 01:00:31;;;;;;;15.10;11.07;;;2.00;99.90;;;;;;5014750;28;20184;-74
2021/12/09 01:02:58;;;;;;;12.73;10.70;;;2.00;99.90;;;;;;4997032;28;20176;-76
2021/12/09 01:05:25;;;;;;;14.83;11.37;;;2.00;99.90;;;;;;5014457;28;20175;-75
2021/12/09 01:07:51;;;;;;;16.37;11.67;;;1.90;99.90;;;;;;4996041;28;20179;-75
2021/12/09 01:10:17;;;;;;;15.20;11.20;;;1.90;99.90;;;;;;5014376;28;20559;-76
2021/12/09 01:12:44;;;;;;;15.70;11.33;;;1.90;99.90;;;;;;5014139;28;20210;-76
2021/12/09 01:15:12;;;;;;;13.50;10.67;;;1.80;99.90;;;;;;5014237;28;20209;-76
2021/12/09 01:17:38;;;;;;;15.33;11.43;;;1.90;99.90;;;;;;5014330;28;20183;-76
2021/12/09 01:20:07;;;;;;;15.40;11.53;;;1.90;99.90;;;;;;5014267;28;20195;-76
2021/12/09 01:22:41;;;;;;;12.93;10.40;;;1.90;99.90;;;;;;5013875;28;20183;-76
2021/12/09 01:25:08;;;;;;;13.73;10.57;;;2.00;99.90;;;;;;5014085;28;20198;-76
2021/12/09 01:27:36;;;;;;;15.60;11.10;;;2.00;99.90;;;;;;4996274;28;20184;-76
2021/12/09 01:30:10;;;;;;;14.33;10.87;;;2.00;99.90;;;;;;5014148;28;20179;-77
2021/12/09 01:32:36;;;;;;;12.83;10.53;;;2.00;99.90;;;;;;5014032;28;20272;-76
2021/12/09 01:35:03;;;;;;;15.80;11.30;;;2.00;99.90;;;;;;4996241;28;20211;-76
2021/12/09 01:37:30;;;;;;;16.97;12.17;;;1.90;99.90;;;;;;5014013;28;20692;-76
2021/12/09 01:39:56;;;;;;;16.70;12.27;;;1.90;99.90;;;;;;5013909;28;20171;-76
2021/12/09 01:42:21;;;;;;;17.03;12.57;;;1.90;99.90;;;;;;5012697;28;20230;-75
2021/12/09 01:44:47;;;;;;;15.37;12.00;;;1.90;99.90;;;;;;5013903;28;20224;-74
2021/12/09 01:47:13;;;;;;;16.20;12.53;;;1.90;99.90;;;;;;4996426;28;20183;-74
2021/12/09 01:49:38;;;;;;;18.53;13.43;;;1.90;99.90;;;;;;5013978;28;20719;-74
2021/12/09 01:52:05;;;;;;;18.13;13.33;;;1.90;99.90;;;;;;5014331;28;20218;-77
2021/12/09 01:54:32;;;;;;;16.87;11.83;;;1.90;99.90;;;;;;5012573;28;20215;-76
2021/12/09 01:56:59;;;;;;;18.90;12.80;;;1.80;99.90;;;;;;5013055;28;20179;-76
2021/12/09 01:59:25;;;;;;;21.47;13.97;;;1.70;99.90;;;;;;5012168;28;20204;-76
2021/12/09 02:01:51;;;;;;;19.47;13.43;;;1.70;99.90;;;;;;5012831;28;20266;-76
2021/12/09 02:04:16;;;;;;;23.37;15.17;;;1.70;99.90;;;;;;5013052;28;20290;-77
2021/12/09 02:06:43;;;;;;;24.97;15.43;;;1.70;99.90;;;;;;4995245;28;20217;-74
2021/12/09 02:09:11;;;;;;;31.30;16.83;;;1.60;99.90;;;;;;5012414;28;20252;-74
2021/12/09 02:11:38;;;;;;;23.47;15.13;;;1.50;99.90;;;;;;4994828;28;20187;-77
2021/12/09 02:14:06;;;;;;;28.57;16.37;;;1.40;99.90;;;;;;4994572;28;20276;-77
2021/12/09 02:16:33;;;;;;;25.03;15.17;;;1.50;99.90;;;;;;5012164;28;20171;-74
2021/12/09 02:18:59;;;;;;;21.07;13.87;;;1.60;99.90;;;;;;5017341;28;20182;-75
2021/12/09 02:21:29;;;;;;;20.03;13.57;;;1.60;99.90;;;;;;5018648;28;20689;-74
2021/12/09 02:23:59;;;;;;;18.83;13.40;;;1.60;99.90;;;;;;5018469;28;20201;-75
2021/12/09 02:26:28;;;;;;;22.77;14.10;;;1.60;99.90;;;;;;5019134;28;20305;-74
2021/12/09 02:28:55;;;;;;;21.20;13.40;;;1.60;99.90;;;;;;5018614;28;20209;-74
2021/12/09 02:31:22;;;;;;;22.67;14.53;;;1.60;99.90;;;;;;5018470;28;20181;-74
2021/12/09 02:33:48;;;;;;;26.13;14.20;;;1.60;99.90;;;;;;5019050;28;20293;-74
2021/12/09 02:36:14;;;;;;;20.27;13.47;;;1.50;99.90;;;;;;5020588;28;20202;-74
2021/12/09 02:38:47;;;;;;;23.27;14.83;;;1.50;99.90;;;;;;5003646;28;20178;-74
2021/12/09 02:41:18;;;;;;;20.47;13.80;;;1.50;99.90;;;;;;5020824;28;20262;-74
2021/12/09 02:43:47;;;;;;;22.67;14.50;;;1.40;99.90;;;;;;5002491;28;20221;-73
2021/12/09 02:46:15;;;;;;;70.50;28.23;;;1.50;99.90;;;;;;5017236;28;20182;-75
2021/12/09 02:48:41;;;;;;;28.97;16.70;;;1.40;99.90;;;;;;5020664;28;20171;-74
2021/12/09 02:51:07;;;;;;;89.33;34.90;;;1.50;99.90;;;;;;5002860;28;20215;-74
2021/12/09 02:53:34;;;;;;;23.77;14.53;;;1.50;99.90;;;;;;5018065;28;20241;-74
2021/12/09 02:56:00;;;;;;;24.70;13.77;;;1.50;99.90;;;;;;4996713;28;20187;-74
2021/12/09 02:58:26;;;;;;;20.77;14.13;;;1.50;99.90;;;;;;5016296;28;20229;-74
2021/12/09 03:01:03;;;;;;;21.23;13.40;;;1.60;99.90;;;;;;5018538;28;20226;-74
2021/12/09 03:03:29;;;;;;;20.53;13.23;;;1.70;99.90;;;;;;5019176;28;20250;-74
2021/12/09 03:05:59;;;;;;;19.23;12.30;;;1.70;99.90;;;;;;5020074;28;20629;-74
2021/12/09 03:08:37;;;;;;;18.27;12.50;;;1.80;99.90;;;;;;5020782;28;20218;-74
2021/12/09 03:11:08;;;;;;;16.47;11.10;;;1.80;99.90;;;;;;5020137;28;20194;-76
2021/12/09 03:13:35;;;;;;;17.40;11.67;;;1.80;99.90;;;;;;5019975;28;20742;-75
2021/12/09 03:16:02;;;;;;;19.60;12.43;;;1.80;99.90;;;;;;5020620;28;20180;-76
2021/12/09 03:18:27;;;;;;;17.07;12.00;;;1.80;99.90;;;;;;5020620;28;20206;-74
2021/12/09 03:20:53;;;;;;;18.80;12.30;;;1.80;99.90;;;;;;5020770;28;20878;-75
2021/12/09 03:23:19;;;;;;;17.47;12.33;;;1.80;99.90;;;;;;5003074;28;20207;-76
2021/12/09 03:25:45;;;;;;;18.10;12.80;;;1.80;99.90;;;;;;5020972;28;20195;-76
2021/12/09 03:28:10;;;;;;;18.13;12.67;;;1.80;99.90;;;;;;5003139;28;20186;-76
2021/12/09 03:30:36;;;;;;;15.97;11.87;;;1.90;99.90;;;;;;4999713;28;20265;-76
2021/12/09 03:33:02;;;;;;;18.63;11.83;;;1.80;99.90;;;;;;5017765;28;20186;-76
2021/12/09 03:35:28;;;;;;;20.00;12.67;;;1.80;99.90;;;;;;5000065;28;20183;-76
2021/12/09 03:37:54;;;;;;;18.47;12.43;;;1.80;99.90;;;;;;5017794;28;20218;-76
2021/12/09 03:40:20;;;;;;;20.37;13.17;;;1.80;99.90;;;;;;5001128;28;20213;-75
2021/12/09 03:42:46;;;;;;;16.67;12.10;;;1.80;99.90;;;;;;5017644;28;20171;-74
2021/12/09 03:45:13;;;;;;;18.00;12.67;;;1.90;99.90;;;;;;4999458;28;20203;-75
2021/12/09 03:47:39;;;;;;;18.30;12.43;;;1.80;99.90;;;;;;5017783;28;20672;-76
2021/12/09 03:50:07;;;;;;;16.20;12.10;;;1.90;99.90;;;;;;5000000;28;20544;-76
2021/12/09 03:52:32;;;;;;;18.30;12.50;;;1.90;99.90;;;;;;5008592;28;20555;-76
2021/12/09 03:54:59;;;;;;;18.43;13.13;;;1.80;99.90;;;;;;5017111;28;20203;-76
2021/12/09 03:57:25;;;;;;;16.63;12.07;;;1.90;99.90;;;;;;5000109;28;20646;-76
2021/12/09 03:59:50;;;;;;;18.03;12.77;;;1.80;99.90;;;;;;5017218;28;20294;-76
2021/12/09 04:02:18;;;;;;;16.03;12.00;;;1.80;99.90;;;;;;5017245;28;20541;-76
2021/12/09 04:04:43;;;;;;;16.23;12.60;;;1.90;99.90;;;;;;4999700;28;20202;-76
2021/12/09 04:07:09;;;;;;;16.93;12.10;;;1.80;99.90;;;;;;5017526;28;20594;-76
2021/12/09 04:09:35;;;;;;;19.07;13.20;;;1.90;99.90;;;;;;5016917;28;20554;-76
2021/12/09 04:12:01;;;;;;;22.47;15.00;;;1.80;99.90;;;;;;5016890;28;20266;-76
2021/12/09 04:14:26;;;;;;;24.53;14.83;;;1.80;99.90;;;;;;5003082;28;20203;-76
2021/12/09 04:16:53;;;;;;;23.33;15.60;;;1.80;99.90;;;;;;4998883;28;20175;-77
2021/12/09 04:19:19;;;;;;;27.50;15.70;;;1.80;99.90;;;;;;5016866;28;20592;-76
2021/12/09 04:21:46;;;;;;;31.50;16.60;;;1.80;99.90;;;;;;4999223;28;20183;-77
2021/12/09 04:24:14;;;;;;;28.67;17.27;;;1.80;99.90;;;;;;4996510;28;20858;-76
2021/12/09 04:26:42;;;;;;;27.67;16.50;;;1.70;99.90;;;;;;5015983;28;20179;-76
2021/12/09 04:29:11;;;;;;;26.17;15.60;;;1.80;99.90;;;;;;5014275;28;20191;-76
2021/12/09 04:31:36;;;;;;;27.43;15.70;;;1.80;99.90;;;;;;5016269;28;20260;-76
2021/12/09 04:34:03;;;;;;;24.80;15.33;;;1.80;99.90;;;;;;5016625;28;20251;-76
2021/12/09 04:36:29;;;;;;;26.80;16.13;;;1.80;99.90;;;;;;5016365;28;20213;-76
2021/12/09 04:38:55;;;;;;;27.20;15.80;;;1.80;99.90;;;;;;4998406;28;20183;-76
2021/12/09 04:41:22;;;;;;;30.60;17.23;;;1.80;99.90;;;;;;5016224;28;20175;-76
2021/12/09 04:43:48;;;;;;;30.65;16.90;;;1.90;99.90;;;;;;5032308;23;20247;-73
2021/12/09 04:46:15;;;;;;;30.73;16.47;;;1.80;99.90;;;;;;5053599;28;20676;-72
2021/12/09 04:48:41;;;;;;;34.53;17.87;;;1.90;99.90;;;;;;5036591;28;20173;-73
2021/12/09 04:51:07;;;;;;;28.90;17.10;;;1.90;99.90;;;;;;5054242;28;20170;-73
2021/12/09 04:53:33;;;;;;;30.33;17.43;;;1.90;99.90;;;;;;5047443;28;20573;-73
2021/12/09 04:55:59;;;;;;;31.23;17.40;;;1.90;99.90;;;;;;5054528;28;20676;-73
2021/12/09 04:58:26;;;;;;;30.20;17.30;;;1.90;99.90;;;;;;5054030;28;20667;-72
2021/12/09 05:00:54;;;;;;;30.07;17.50;;;1.90;99.90;;;;;;5052091;28;20559;-72
2021/12/09 05:03:20;;;;;;;30.63;17.17;;;1.90;99.90;;;;;;5050080;28;20189;-73
2021/12/09 05:05:51;;;;;;;32.77;19.20;;;1.90;99.90;;;;;;5019521;28;20194;-74
2021/12/09 05:08:20;;;;;;;30.03;17.20;;;1.80;99.90;;;;;;5018697;28;20170;-73
2021/12/09 05:10:54;;;;;;;31.47;17.00;;;1.90;99.90;;;;;;5034978;28;20171;-73
2021/12/09 05:13:21;;;;;;;35.27;18.67;;;1.90;99.90;;;;;;5019009;28;20235;-72
2021/12/09 05:15:47;;;;;;;28.17;16.47;;;1.90;99.90;;;;;;5038588;28;20594;-73
2021/12/09 05:18:13;;;;;;;26.87;16.57;;;2.00;99.90;;;;;;5018362;28;20224;-73
2021/12/09 05:20:39;;;;;;;30.90;16.73;;;1.90;99.90;;;;;;5039761;28;20669;-73
2021/12/09 05:23:05;;;;;;;32.07;17.80;;;1.90;99.90;;;;;;5033763;28;20178;-72
2021/12/09 05:25:32;;;;;;;31.57;16.17;;;1.90;99.90;;;;;;5052478;28;20198;-72
2021/12/09 05:27:57;;;;;;;29.73;16.03;;;1.90;99.90;;;;;;5053467;28;20170;-72
2021/12/09 05:30:24;;;;;;;29.83;15.30;;;1.80;99.90;;;;;;5032552;28;20175;-72
2021/12/09 05:32:50;;;;;;;31.00;15.47;;;1.80;99.90;;;;;;5051034;28;20169;-72
2021/12/09 05:35:16;;;;;;;30.10;15.93;;;1.70;99.90;;;;;;5053507;28;20207;-72
2021/12/09 05:37:43;;;;;;;29.47;16.17;;;1.70;99.90;;;;;;5053544;28;20171;-73
2021/12/09 05:40:12;;;;;;;31.23;15.93;;;1.80;99.90;;;;;;5032285;28;20185;-72
2021/12/09 05:42:38;;;;;;;31.63;15.90;;;1.70;99.90;;;;;;5047514;28;20243;-74
2021/12/09 05:45:05;;;;;;;30.03;15.73;;;1.70;99.90;;;;;;5053126;28;20660;-72
2021/12/09 05:47:31;;;;;;;28.20;16.03;;;1.70;99.90;;;;;;5053696;28;20279;-73
2021/12/09 05:49:57;;;;;;;26.37;15.37;;;1.70;99.90;;;;;;5032164;28;20576;-72
2021/12/09 05:52:23;;;;;;;27.37;15.87;;;1.80;99.90;;;;;;5049661;28;20182;-73
2021/12/09 05:54:49;;;;;;;31.20;15.83;;;1.70;99.90;;;;;;5034124;28;20213;-73
2021/12/09 05:57:15;;;;;;;28.63;15.83;;;1.70;99.90;;;;;;5053614;28;20177;-72
2021/12/09 05:59:42;;;;;;;25.27;13.93;;;1.80;99.90;;;;;;5052569;28;20275;-73
2021/12/09 06:02:12;;;;;;;26.40;15.37;;;1.80;99.90;;;;;;5051440;28;20204;-73
2021/12/09 06:04:38;;;;;;;25.83;14.67;;;1.80;99.90;;;;;;5051965;28;20191;-73
2021/12/09 06:07:04;;;;;;;25.93;14.80;;;1.80;99.90;;;;;;5032181;28;20555;-73
2021/12/09 06:09:30;;;;;;;27.47;15.63;;;1.90;99.90;;;;;;5051823;28;20652;-74
2021/12/09 06:11:56;;;;;;;26.03;14.73;;;1.80;99.90;;;;;;5030897;28;20191;-74
2021/12/09 06:14:22;;;;;;;27.67;15.47;;;1.80;99.90;;;;;;5064986;28;20728;-73
2021/12/09 06:16:47;;;;;;;25.27;14.80;;;1.80;99.90;;;;;;5051856;28;20220;-73
2021/12/09 06:19:13;;;;;;;26.90;15.47;;;1.80;99.90;;;;;;5033994;28;20169;-73
2021/12/09 06:21:39;;;;;;;26.97;15.87;;;1.80;99.90;;;;;;5052110;28;20165;-75
2021/12/09 06:24:05;;;;;;;31.23;16.27;;;1.80;99.90;;;;;;5031466;28;20213;-73
2021/12/09 06:26:32;;;;;;;28.33;16.43;;;1.80;99.90;;;;;;5051336;28;20196;-73
2021/12/09 06:28:58;;;;;;;30.10;16.30;;;1.80;99.90;;;;;;5031881;28;20186;-73
2021/12/09 06:31:24;;;;;;;28.30;16.33;;;1.80;99.90;;;;;;5050536;28;20173;-73
2021/12/09 06:33:51;;;;;;;28.77;16.67;;;1.80;99.90;;;;;;5043260;28;20209;-74
2021/12/09 06:36:17;;;;;;;31.17;17.63;;;1.90;99.90;;;;;;5035911;28;20174;-72
2021/12/09 06:38:43;;;;;;;29.67;16.47;;;1.90;99.90;;;;;;5023161;28;20216;-73
2021/12/09 06:41:09;;;;;;;27.30;16.33;;;1.90;99.90;;;;;;5050427;28;20173;-74
2021/12/09 06:43:42;;;;;;;31.57;16.43;;;1.90;99.90;;;;;;5052611;28;20174;-71
2021/12/09 06:46:12;;;;;;;32.83;16.40;;;1.90;99.90;;;;;;5027056;28;20276;-74
2021/12/09 06:48:38;;;;;;;26.80;15.57;;;1.90;99.90;;;;;;5055379;28;20259;-72
2021/12/09 06:51:05;;;;;;;28.27;16.20;;;1.90;99.90;;;;;;5034810;28;20184;-72
2021/12/09 06:53:32;;;;;;;24.70;15.33;;;1.90;99.90;;;;;;5052333;28;20206;-72
2021/12/09 06:55:58;;;;;;;31.57;17.00;;;1.90;99.90;;;;;;5052689;28;20205;-72
2021/12/09 06:58:25;;;;;;;26.87;16.03;;;1.80;99.90;;;;;;5051620;28;20178;-72
2021/12/09 07:00:54;;;;;;;31.67;17.80;;;1.80;99.90;;;;;;5052660;28;20241;-72
2021/12/09 07:03:21;;;;;;;25.93;15.67;;;1.80;99.90;;;;;;5052001;28;20186;-73
2021/12/09 07:05:49;;;;;;;28.50;16.73;;;1.90;99.90;;;;;;5054440;28;20226;-72
2021/12/09 07:08:15;;;;;;;24.30;15.83;;;1.90;99.90;;;;;;5035498;28;20241;-74
2021/12/09 07:10:41;;;;;;;27.37;15.70;;;1.90;99.90;;;;;;5035398;28;20182;-73
2021/12/09 07:13:08;;;;;;;29.40;17.40;;;1.90;99.90;;;;;;5047480;28;20219;-77
2021/12/09 07:15:35;;;;;;;32.67;18.37;;;2.00;99.90;;;;;;5056153;28;20201;-72
2021/12/09 07:18:02;;;;;;;26.70;16.87;;;2.00;99.90;;;;;;5037509;28;20201;-72
2021/12/09 07:20:28;;;;;;;36.63;18.03;;;2.00;99.90;;;;;;5038233;28;20217;-72
2021/12/09 07:22:55;;;;;;;32.37;17.97;;;2.00;99.90;;;;;;5056073;28;20173;-72
2021/12/09 07:25:23;;;;;;;28.67;17.10;;;2.00;99.90;;;;;;5044842;28;20700;-73
2021/12/09 07:27:49;;;;;;;29.77;17.77;;;2.10;99.90;;;;;;5040604;28;20182;-72
2021/12/09 07:30:19;;;;;;;31.20;17.60;;;2.10;99.90;;;;;;5045413;28;20291;-72
2021/12/09 07:32:44;;;;;;;28.77;16.30;;;2.20;99.90;;;;;;5033366;28;20193;-72
2021/12/09 07:35:12;;;;;;;27.20;16.47;;;2.20;99.90;;;;;;5052504;28;20583;-73
2021/12/09 07:37:38;;;;;;;29.50;17.27;;;2.10;99.90;;;;;;5046034;28;20182;-73
2021/12/09 07:40:06;;;;;;;33.53;18.10;;;2.20;99.90;;;;;;5036482;28;20174;-74
2021/12/09 07:42:32;;;;;;;29.83;16.77;;;2.10;99.90;;;;;;5046991;28;20182;-74
2021/12/09 07:44:57;;;;;;;25.33;15.83;;;2.20;99.90;;;;;;5035696;28;20264;-73
2021/12/09 07:47:23;;;;;;;22.67;15.40;;;2.10;99.90;;;;;;5053601;28;20197;-72
2021/12/09 07:49:49;;;;;;;28.50;16.93;;;2.20;99.90;;;;;;5055485;28;20204;-72
2021/12/09 07:52:14;;;;;;;26.17;16.70;;;2.20;99.90;;;;;;5047237;28;20321;-72
2021/12/09 07:54:40;;;;;;;29.07;16.67;;;2.20;99.90;;;;;;5055242;28;20339;-73
2021/12/09 07:57:06;;;;;;;23.87;15.80;;;2.20;99.90;;;;;;5051429;28;20173;-74
2021/12/09 07:59:32;;;;;;;26.07;17.07;;;2.20;99.90;;;;;;5068299;28;20237;-72
2021/12/09 08:01:57;;;;;;;26.07;16.27;;;2.30;99.90;;;;;;5056246;28;20265;-73
2021/12/09 08:04:23;;;;;;;24.07;14.73;;;2.70;99.90;;;;;;5034890;28;20205;-71
2021/12/09 08:06:49;;;;;;;24.57;16.70;;;2.30;99.90;;;;;;5055677;28;20186;-71
2021/12/09 08:09:16;;;;;;;25.87;16.43;;;2.40;99.90;;;;;;5055128;28;20189;-71
2021/12/09 08:11:43;;;;;;;23.93;15.77;;;2.30;99.90;;;;;;5035941;28;20186;-72
2021/12/09 08:14:15;;;;;;;27.17;16.47;;;2.40;99.90;;;;;;5054782;28;20216;-72
2021/12/09 08:16:41;;;;;;;22.37;15.17;;;2.30;99.90;;;;;;5054604;28;20177;-72
2021/12/09 08:19:10;;;;;;;23.67;15.80;;;2.40;99.90;;;;;;5036447;28;20644;-71
2021/12/09 08:21:37;;;;;;;22.67;14.70;;;2.40;99.90;;;;;;5054998;28;20178;-71
2021/12/09 08:24:09;;;;;;;19.67;13.70;;;3.00;99.90;;;;;;5054762;28;20189;-72
2021/12/09 08:26:35;;;;;;;18.67;13.67;;;2.50;99.90;;;;;;5054846;28;20177;-73
2021/12/09 08:29:03;;;;;;;21.43;13.63;;;2.50;99.90;;;;;;5030791;28;20189;-71
2021/12/09 08:31:32;;;;;;;18.90;13.60;;;2.50;99.90;;;;;;5054706;28;20179;-72
2021/12/09 08:33:58;;;;;;;19.73;13.27;;;2.50;99.90;;;;;;5054485;28;20202;-72
2021/12/09 08:36:24;;;;;;;18.37;13.40;;;2.50;99.90;;;;;;5034949;28;20193;-71
2021/12/09 08:38:50;;;;;;;17.83;13.07;;;2.40;99.90;;;;;;5054160;28;20247;-71
2021/12/09 08:41:18;;;;;;;19.07;12.80;;;2.40;99.90;;;;;;5050742;28;20237;-72
2021/12/09 08:43:43;;;;;;;18.10;12.30;;;2.40;99.90;;;;;;5056873;28;20264;-72
2021/12/09 08:46:09;;;;;;;19.33;13.43;;;2.40;99.90;;;;;;5036402;28;20291;-72
2021/12/09 08:48:35;;;;;;;19.47;13.37;;;2.40;99.90;;;;;;5054227;28;20178;-72
2021/12/09 08:51:00;;;;;;;21.13;13.13;;;2.40;99.90;;;;;;5047636;28;20212;-72
2021/12/09 08:53:26;;;;;;;22.03;14.37;;;2.50;99.90;;;;;;5028496;28;20233;-72
2021/12/09 08:55:53;;;;;;;25.10;14.33;;;2.50;99.90;;;;;;5018344;28;20229;-71
2021/12/09 08:58:20;;;;;;;20.03;13.20;;;2.50;99.90;;;;;;5050261;28;20227;-73
2021/12/09 09:00:47;;;;;;;20.83;14.97;;;2.60;99.90;;;;;;5039162;28;20659;-70
2021/12/09 09:03:14;;;;;;;18.20;13.20;;;2.50;99.90;;;;;;5039180;28;20197;-71
2021/12/09 09:05:41;;;;;;;20.43;13.50;;;2.50;99.90;;;;;;5034705;28;20202;-70
2021/12/09 09:08:07;;;;;;;18.70;12.23;;;2.50;99.90;;;;;;5015522;28;20176;-70
2021/12/09 09:10:38;;;;;;;16.50;11.47;;;2.50;99.90;;;;;;5035140;28;20788;-71
2021/12/09 09:13:03;;;;;;;12.53;10.67;;;2.50;99.90;;;;;;5034873;28;20592;-71
2021/12/09 09:15:31;;;;;;;14.87;10.77;;;2.60;99.90;;;;;;5017311;28;20198;-70
2021/12/09 09:17:58;;;;;;;14.17;9.90;;;2.60;99.90;;;;;;5034843;28;20180;-69
2021/12/09 09:20:27;;;;;;;15.23;10.57;;;2.60;99.90;;;;;;5033612;28;20262;-72
2021/12/09 09:22:52;;;;;;;11.87;10.07;;;2.70;99.90;;;;;;5019013;28;20210;-71
2021/12/09 09:25:28;;;;;;;11.50;10.20;;;2.70;99.90;;;;;;5032937;28;20205;-75
2021/12/09 09:27:55;;;;;;;14.70;10.83;;;2.70;99.90;;;;;;5034385;28;20208;-72
2021/12/09 09:30:20;;;;;;;10.27;8.37;;;2.70;99.90;;;;;;5034708;28;20656;-71
2021/12/09 09:32:48;;;;;;;12.17;8.73;;;2.70;99.90;;;;;;5018216;28;20177;-72
2021/12/09 09:35:14;;;;;;;13.13;10.13;;;2.70;99.90;;;;;;5036385;28;20198;-71
2021/12/09 09:37:40;;;;;;;11.67;9.17;;;2.70;99.90;;;;;;5043982;28;20175;-70
2021/12/09 09:40:11;;;;;;;11.50;8.63;;;2.80;99.90;;;;;;5033215;28;20182;-72
2021/12/09 09:45:09;;;;;;;10.17;8.60;;;2.80;99.90;;;;;;5034317;28;20210;-71
2021/12/09 09:47:35;;;;;;;9.87;8.30;;;2.80;99.90;;;;;;5034500;28;20183;-71
2021/12/09 09:50:02;;;;;;;10.53;8.17;;;2.80;99.90;;;;;;5035667;28;20255;-71
2021/12/09 09:52:28;;;;;;;10.73;7.73;;;2.80;99.90;;;;;;5035018;28;20206;-71
2021/12/09 09:54:55;;;;;;;7.20;5.93;;;2.80;99.90;;;;;;5033887;28;20291;-71
2021/12/09 09:57:22;;;;;;;8.07;5.87;;;2.80;99.90;;;;;;5032335;28;20180;-72
2021/12/09 09:59:48;;;;;;;9.53;6.20;;;2.80;99.90;;;;;;5034072;28;20649;-73
2021/12/09 10:02:14;;;;;;;7.87;6.30;;;2.80;99.90;;;;;;5033990;28;20174;-74
2021/12/09 10:04:46;;;;;;;6.43;5.60;;;2.80;99.90;;;;;;5035958;28;20198;-73
2021/12/09 10:07:15;;;;;;;6.77;5.97;;;2.90;99.90;;;;;;5036680;28;20178;-75
2021/12/09 10:09:42;;;;;;;6.93;5.47;;;2.90;99.90;;;;;;5033962;28;20547;-72
2021/12/09 10:12:08;;;;;;;6.37;5.47;;;2.90;99.90;;;;;;5034412;28;20201;-73
2021/12/09 10:14:35;;;;;;;7.13;5.20;;;2.90;99.90;;;;;;5033058;28;20234;-75
2021/12/09 10:17:16;;;;;;;5.77;4.53;;;2.90;99.90;;;;;;5032972;28;20229;-73
2021/12/09 10:19:53;;;;;;;6.23;4.53;;;3.00;99.90;;;;;;5032743;28;20178;-73
2021/12/09 10:22:21;;;;;;;7.03;4.40;;;3.00;99.90;;;;;;5038559;28;20257;-72
2021/12/09 10:24:49;;;;;;;5.47;4.43;;;3.00;99.90;;;;;;5052821;28;20198;-73
2021/12/09 10:27:29;;;;;;;6.10;4.63;;;3.00;99.90;;;;;;5052683;28;20182;-73
2021/12/09 10:30:13;;;;;;;8.37;5.47;;;3.00;99.90;;;;;;5031243;28;20281;-74
2021/12/09 10:32:40;;;;;;;8.30;5.33;;;3.10;99.90;;;;;;5033301;28;20186;-73
2021/12/09 10:35:12;;;;;;;6.90;5.03;;;3.10;99.90;;;;;;5052372;28;20209;-73
2021/12/09 10:37:40;;;;;;;5.73;4.47;;;3.10;99.90;;;;;;5052468;28;20184;-73
2021/12/09 10:40:20;;;;;;;7.13;5.17;;;3.20;99.90;;;;;;5036748;28;20649;-73
2021/12/09 10:43:02;;;;;;;4.83;4.33;;;3.20;99.90;;;;;;5037329;28;20224;-73
2021/12/09 10:45:36;;;;;;;10.73;5.07;;;3.20;99.90;;;;;;5045373;28;20205;-73
2021/12/09 10:55:57;;;;;;;11.03;5.40;;;3.20;99.90;;;;;;5051752;28;20252;-74
2021/12/09 10:58:34;;;;;;;10.00;4.70;;;3.30;99.90;;;;;;5044583;28;20188;-73
2021/12/09 11:01:04;;;;;;;6.20;4.80;;;3.40;99.90;;;;;;5025791;28;20178;-72
2021/12/09 11:03:44;;;;;;;8.00;5.23;;;3.40;99.90;;;;;;5028079;28;20186;-75
2021/12/09 11:06:19;;;;;;;7.13;5.57;;;3.40;99.90;;;;;;5026478;28;20204;-73
2021/12/09 11:08:56;;;;;;;7.10;4.90;;;3.40;99.90;;;;;;5046784;28;20680;-72
2021/12/09 11:11:39;;;;;;;6.67;5.60;;;3.40;99.90;;;;;;5022627;28;20182;-72
2021/12/09 11:14:18;;;;;;;7.70;4.67;;;3.40;99.90;;;;;;5033413;28;20201;-73
2021/12/09 11:16:50;;;;;;;6.37;5.07;;;3.40;99.90;;;;;;5040205;28;20189;-76
2021/12/09 11:19:38;;;;;;;7.53;4.27;;;3.50;99.90;;;;;;5029334;28;20175;-73
2021/12/09 11:22:11;;;;;;;4.63;4.23;;;3.50;99.90;;;;;;5029491;28;20232;-74
2021/12/09 11:24:42;;;;;;;3.67;3.33;;;3.50;99.90;;;;;;5039998;28;20210;-73
2021/12/09 11:27:18;;;;;;;5.03;4.10;;;3.50;99.90;;;;;;5043514;28;20204;-73
2021/12/09 11:29:50;;;;;;;3.43;3.03;;;3.50;99.90;;;;;;5019188;28;20195;-71
2021/12/09 11:35:20;;;;;;;6.43;3.60;;;3.50;99.90;;;;;;5044541;28;20224;-72
2021/12/09 11:38:07;;;;;;;5.97;3.40;;;3.50;99.90;;;;;;5040574;28;20177;-72
2021/12/09 12:21:15;;;;;;;3.63;3.20;;;3.70;99.90;;;;;;5005184;28;20187;-75
2021/12/09 12:39:16;;;;;;;4.93;2.70;;;3.70;99.90;;;;;;5255159;22;20235;-74
2021/12/09 12:42:08;;;;;;;5.60;2.83;;;3.80;99.90;;;;;;4983230;28;20196;-74
2021/12/09 12:44:34;;;;;;;3.57;1.90;;;3.80;99.90;;;;;;4960366;28;20192;-74
2021/12/09 12:47:15;;;;;;;4.63;2.73;;;3.80;99.90;;;;;;4988381;28;20178;-74
2021/12/09 12:49:46;;;;;;;3.00;2.20;;;3.90;99.90;;;;;;4961101;28;20675;-74
2021/12/09 12:52:27;;;;;;;2.70;2.30;;;3.80;99.90;;;;;;4944420;28;20177;-75
2021/12/09 12:55:12;;;;;;;3.87;2.50;;;3.70;99.90;;;;;;4949357;28;20204;-73
2021/12/09 12:57:45;;;;;;;3.67;2.57;;;3.70;99.90;;;;;;4958088;28;20173;-72
2021/12/09 13:00:27;;;;;;;3.47;2.87;;;3.80;99.90;;;;;;4970298;28;20180;-72
2021/12/09 13:05:33;;;;;;;4.87;2.70;;;3.80;99.90;;;;;;4963523;28;20204;-73
2021/12/09 13:08:29;;;;;;;5.17;2.70;;;3.80;99.90;;;;;;4957498;28;20706;-74
2021/12/09 13:14:01;;;;;;;5.17;2.83;;;3.80;99.90;;;;;;4961385;28;20172;-72
2021/12/09 13:19:16;;;;;;;3.23;2.43;;;3.80;99.90;;;;;;4975518;28;20208;-72
2021/12/09 13:21:53;;;;;;;6.33;2.60;;;3.80;99.90;;;;;;4975197;28;20177;-72
2021/12/09 13:24:24;;;;;;;6.80;2.60;;;3.80;99.90;;;;;;4974779;28;20650;-72
2021/12/09 13:27:30;;;;;;;5.67;2.67;;;3.80;99.90;;;;;;4971882;28;20557;-72
2021/12/09 13:30:11;;;;;;;7.30;2.90;;;3.80;99.90;;;;;;4960289;28;20189;-73
2021/12/09 13:54:25;;;;;;;7.57;2.37;;;3.90;99.90;;;;;;4959739;28;20204;-73
2021/12/09 13:57:03;;;;;;;5.13;2.03;;;3.90;99.90;;;;;;4945591;28;20240;-72
2021/12/09 13:59:36;;;;;;;5.20;1.70;;;3.90;99.90;;;;;;4965211;28;20207;-72
2021/12/09 14:02:14;;;;;;;5.33;2.03;;;3.80;99.90;;;;;;4967055;28;20192;-73
2021/12/09 14:04:40;;;;;;;5.53;2.60;;;3.80;99.90;;;;;;4967698;28;20636;-74
2021/12/09 14:07:13;;;;;;;11.57;3.13;;;3.90;99.90;;;;;;4965888;28;20189;-73
2021/12/09 14:09:42;;;;;;;6.63;2.53;;;3.80;99.90;;;;;;4969438;28;20244;-73
2021/12/09 14:12:08;;;;;;;5.63;2.30;;;3.80;99.90;;;;;;4968137;28;20264;-74
2021/12/09 14:14:43;;;;;;;7.80;2.40;;;3.90;99.90;;;;;;4964283;28;20371;-73
2021/12/09 14:17:13;;;;;;;6.90;2.30;;;3.90;99.90;;;;;;4953688;28;20179;-71
2021/12/09 14:20:02;;;;;;;6.47;2.00;;;3.90;99.90;;;;;;4964906;28;20273;-72
2021/12/09 14:22:29;;;;;;;6.30;2.10;;;4.00;99.90;;;;;;4966280;28;20184;-71
2021/12/09 14:24:55;;;;;;;5.20;1.97;;;3.90;99.90;;;;;;4964058;28;20588;-73
2021/12/09 14:27:22;;;;;;;5.80;2.20;;;3.90;99.90;;;;;;4958727;28;20189;-74